Terminal Aerodrome Forecast
Issued by NWS Charleston, WV

Home | Current Version | Previous Version | Text Only | Print | Product List | Glossary On
Versions: 1 2 3 4 5 6 7 8 9 10 11 12 13 14 15 16 17 18 19 20 21 22 23 24 25 26 27
000
FTUS41 KRLX 181120
TAFBKW
TAF
KBKW 181120Z 1812/1912 20014G24KT P6SM BKN050
     FM181500 21013G21KT P6SM OVC040
     FM182100 22015G33KT P6SM OVC050
     FM190000 19016G24KT P6SM OVC045
     FM190200 21016G25KT 5SM -SHRA OVC025
     FM190400 25016G26KT 4SM -SHRA OVC020
     FM190600 26016G28KT 4SM -SHRA OVC015
     FM190900 29017G30KT P6SM OVC015=

USA.gov is the U.S. government's official web portal to all federal, state and local government web resources and services.